sensor_id;sensor_type;location;lat;lon;timestamp;pressure;altitude;pressure_sealevel;temperature;humidity
60244;BME280;46106;51.468;5.814;2022-09-09T00:10:00;100454.63;;;13.99;100.00
60244;BME280;46106;51.468;5.814;2022-09-09T00:13:06;100461.88;;;13.90;100.00
60244;BME280;46106;51.468;5.814;2022-09-09T00:15:54;100448.91;;;13.83;100.00
60244;BME280;46106;51.468;5.814;2022-09-09T00:18:45;100444.50;;;13.90;100.00
60244;BME280;46106;51.468;5.814;2022-09-09T00:21:22;100448.47;;;13.87;100.00
60244;BME280;46106;51.468;5.814;2022-09-09T00:23:55;100439.72;;;13.92;100.00
60244;BME280;46106;51.468;5.814;2022-09-09T00:26:29;100440.06;;;13.89;100.00
60244;BME280;46106;51.468;5.814;2022-09-09T00:29:27;100439.16;;;13.88;100.00
60244;BME280;46106;51.468;5.814;2022-09-09T00:31:57;100438.06;;;13.81;100.00
60244;BME280;46106;51.468;5.814;2022-09-09T00:34:29;100434.13;;;13.84;100.00
60244;BME280;46106;51.468;5.814;2022-09-09T00:36:57;100437.84;;;13.92;100.00
60244;BME280;46106;51.468;5.814;2022-09-09T00:39:36;100445.56;;;13.89;100.00
60244;BME280;46106;51.468;5.814;2022-09-09T00:42:23;100442.38;;;13.84;100.00
60244;BME280;46106;51.468;5.814;2022-09-09T00:44:58;100442.38;;;13.84;100.00
60244;BME280;46106;51.468;5.814;2022-09-09T00:47:51;100442.84;;;13.79;100.00
60244;BME280;46106;51.468;5.814;2022-09-09T00:53:24;100443.00;;;13.77;100.00
60244;BME280;46106;51.468;5.814;2022-09-09T00:56:18;100437.50;;;13.77;100.00
60244;BME280;46106;51.468;5.814;2022-09-09T00:59:00;100430.09;;;13.78;100.00
60244;BME280;46106;51.468;5.814;2022-09-09T01:01:34;100437.91;;;13.83;100.00
60244;BME280;46106;51.468;5.814;2022-09-09T01:04:05;100425.44;;;13.78;100.00
60244;BME280;46106;51.468;5.814;2022-09-09T01:06:36;100433.31;;;13.73;100.00
60244;BME280;46106;51.468;5.814;2022-09-09T01:17:21;100428.81;;;13.72;100.00
60244;BME280;46106;51.468;5.814;2022-09-09T01:25:22;100436.91;;;13.74;100.00
60244;BME280;46106;51.468;5.814;2022-09-09T01:27:59;100426.06;;;13.72;100.00
60244;BME280;46106;51.468;5.814;2022-09-09T01:30:28;100434.31;;;13.72;100.00
60244;BME280;46106;51.468;5.814;2022-09-09T01:32:59;100428.50;;;13.75;100.00
60244;BME280;46106;51.468;5.814;2022-09-09T01:35:35;100425.44;;;13.78;100.00
60244;BME280;46106;51.468;5.814;2022-09-09T01:38:10;100421.13;;;13.76;100.00
60244;BME280;46106;51.468;5.814;2022-09-09T01:40:41;100418.44;;;13.66;100.00
60244;BME280;46106;51.468;5.814;2022-09-09T01:43:12;100431.16;;;13.67;100.00
60244;BME280;46106;51.468;5.814;2022-09-09T01:45:39;100428.41;;;13.67;100.00
60244;BME280;46106;51.468;5.814;2022-09-09T01:48:06;100418.28;;;13.68;100.00
60244;BME280;46106;51.468;5.814;2022-09-09T01:50:34;100418.94;;;13.79;100.00
60244;BME280;46106;51.468;5.814;2022-09-09T01:53:01;100416.78;;;13.73;100.00
60244;BME280;46106;51.468;5.814;2022-09-09T02:01:47;100425.50;;;13.69;100.00
60244;BME280;46106;51.468;5.814;2022-09-09T02:04:31;100422.44;;;13.72;100.00
60244;BME280;46106;51.468;5.814;2022-09-09T02:07:01;100429.00;;;13.71;100.00
60244;BME280;46106;51.468;5.814;2022-09-09T02:09:29;100408.59;;;13.64;100.00
60244;BME280;46106;51.468;5.814;2022-09-09T02:12:01;100415.22;;;13.71;100.00
60244;BME280;46106;51.468;5.814;2022-09-09T02:14:36;100411.00;;;13.76;100.00
60244;BME280;46106;51.468;5.814;2022-09-09T02:17:08;100406.34;;;13.77;100.00
60244;BME280;46106;51.468;5.814;2022-09-09T02:19:37;100403.44;;;13.78;100.00
60244;BME280;46106;51.468;5.814;2022-09-09T02:22:07;100396.06;;;13.79;100.00
60244;BME280;46106;51.468;5.814;2022-09-09T02:24:37;100402.59;;;13.78;100.00
60244;BME280;46106;51.468;5.814;2022-09-09T02:27:12;100396.63;;;13.83;100.00
60244;BME280;46106;51.468;5.814;2022-09-09T02:29:43;100389.97;;;13.75;100.00
60244;BME280;46106;51.468;5.814;2022-09-09T02:32:18;100390.72;;;13.77;100.00
60244;BME280;46106;51.468;5.814;2022-09-09T02:35:08;100391.31;;;13.71;100.00
60244;BME280;46106;51.468;5.814;2022-09-09T02:37:38;100397.22;;;13.76;100.00
60244;BME280;46106;51.468;5.814;2022-09-09T02:40:06;100395.19;;;13.78;100.00
60244;BME280;46106;51.468;5.814;2022-09-09T02:42:41;100395.09;;;13.70;100.00
60244;BME280;46106;51.468;5.814;2022-09-09T02:45:24;100388.88;;;13.68;100.00
60244;BME280;46106;51.468;5.814;2022-09-09T02:48:14;100393.22;;;13.71;100.00
60244;BME280;46106;51.468;5.814;2022-09-09T02:53:17;100399.19;;;13.66;100.00
60244;BME280;46106;51.468;5.814;2022-09-09T02:55:57;100396.84;;;13.71;100.00
60244;BME280;46106;51.468;5.814;2022-09-09T02:58:24;100399.47;;;13.63;100.00
60244;BME280;46106;51.468;5.814;2022-09-09T03:00:52;100398.94;;;13.59;100.00
60244;BME280;46106;51.468;5.814;2022-09-09T03:03:27;100396.13;;;13.69;100.00
60244;BME280;46106;51.468;5.814;2022-09-09T03:05:55;100396.13;;;13.69;100.00
60244;BME280;46106;51.468;5.814;2022-09-09T03:08:22;100398.78;;;13.61;100.00
60244;BME280;46106;51.468;5.814;2022-09-09T03:10:49;100386.34;;;13.57;100.00
60244;BME280;46106;51.468;5.814;2022-09-09T03:13:22;100392.94;;;13.64;100.00
60244;BME280;46106;51.468;5.814;2022-09-09T03:15:52;100395.38;;;13.67;100.00
60244;BME280;46106;51.468;5.814;2022-09-09T03:18:21;100390.47;;;13.71;100.00
60244;BME280;46106;51.468;5.814;2022-09-09T03:20:48;100399.97;;;13.76;100.00
60244;BME280;46106;51.468;5.814;2022-09-09T03:23:14;100389.97;;;13.75;100.00
60244;BME280;46106;51.468;5.814;2022-09-09T03:25:46;100400.69;;;13.78;100.00
60244;BME280;46106;51.468;5.814;2022-09-09T03:28:12;100400.06;;;13.85;100.00
60244;BME280;46106;51.468;5.814;2022-09-09T03:30:38;100407.03;;;13.89;100.00
60244;BME280;46106;51.468;5.814;2022-09-09T03:33:03;100396.72;;;13.91;100.00
60244;BME280;46106;51.468;5.814;2022-09-09T03:35:29;100395.69;;;13.92;100.00
60244;BME280;46106;51.468;5.814;2022-09-09T03:37:55;100403.63;;;13.95;100.00
60244;BME280;46106;51.468;5.814;2022-09-09T03:40:23;100402.63;;;13.96;100.00
60244;BME280;46106;51.468;5.814;2022-09-09T03:42:50;100411.13;;;14.03;100.00
60244;BME280;46106;51.468;5.814;2022-09-09T03:45:18;100409.06;;;14.05;100.00
60244;BME280;46106;51.468;5.814;2022-09-09T03:47:46;100411.81;;;14.05;100.00
60244;BME280;46106;51.468;5.814;2022-09-09T03:50:13;100414.41;;;14.06;100.00
60244;BME280;46106;51.468;5.814;2022-09-09T03:52:41;100412.94;;;14.12;100.00
60244;BME280;46106;51.468;5.814;2022-09-09T03:55:16;100420.72;;;14.16;100.00
60244;BME280;46106;51.468;5.814;2022-09-09T03:57:42;100413.91;;;14.21;100.00
60244;BME280;46106;51.468;5.814;2022-09-09T04:00:10;100415.41;;;14.15;100.00
60244;BME280;46106;51.468;5.814;2022-09-09T04:02:39;100409.09;;;14.23;100.00
60244;BME280;46106;51.468;5.814;2022-09-09T04:05:07;100415.00;;;14.28;100.00
60244;BME280;46106;51.468;5.814;2022-09-09T04:07:38;100400.69;;;14.24;100.00
60244;BME280;46106;51.468;5.814;2022-09-09T04:10:09;100402.81;;;14.30;100.00
60244;BME280;46106;51.468;5.814;2022-09-09T04:12:35;100408.00;;;14.33;100.00
60244;BME280;46106;51.468;5.814;2022-09-09T04:15:07;100402.19;;;14.37;100.00
60244;BME280;46106;51.468;5.814;2022-09-09T04:17:33;100394.06;;;14.35;100.00
60244;BME280;46106;51.468;5.814;2022-09-09T04:20:02;100394.25;;;14.33;100.00
60244;BME280;46106;51.468;5.814;2022-09-09T04:22:28;100393.53;;;14.31;100.00
60244;BME280;46106;51.468;5.814;2022-09-09T04:24:54;100399.19;;;14.30;100.00
60244;BME280;46106;51.468;5.814;2022-09-09T04:27:20;100386.22;;;14.22;100.00
60244;BME280;46106;51.468;5.814;2022-09-09T04:29:47;100387.44;;;14.28;100.00
60244;BME280;46106;51.468;5.814;2022-09-09T04:32:13;100391.47;;;14.33;100.00
60244;BME280;46106;51.468;5.814;2022-09-09T04:34:39;100391.63;;;14.32;100.00
60244;BME280;46106;51.468;5.814;2022-09-09T04:37:14;100394.69;;;14.47;100.00
60244;BME280;46106;51.468;5.814;2022-09-09T04:39:40;100394.03;;;14.63;100.00
60244;BME280;46106;51.468;5.814;2022-09-09T04:42:05;100385.66;;;14.55;100.00
60244;BME280;46106;51.468;5.814;2022-09-09T04:44:32;100401.09;;;14.65;100.00
60244;BME280;46106;51.468;5.814;2022-09-09T04:47:01;100388.94;;;14.58;100.00
60244;BME280;46106;51.468;5.814;2022-09-09T04:49:27;100388.19;;;14.48;100.00
60244;BME280;46106;51.468;5.814;2022-09-09T04:51:54;100389.25;;;14.55;100.00
60244;BME280;46106;51.468;5.814;2022-09-09T04:54:29;100384.06;;;14.52;100.00
60244;BME280;46106;51.468;5.814;2022-09-09T04:56:57;100383.22;;;14.51;100.00
60244;BME280;46106;51.468;5.814;2022-09-09T04:59:24;100361.09;;;14.43;100.00
60244;BME280;46106;51.468;5.814;2022-09-09T05:01:51;100370.91;;;14.46;100.00
60244;BME280;46106;51.468;5.814;2022-09-09T05:04:17;100366.06;;;14.40;100.00
60244;BME280;46106;51.468;5.814;2022-09-09T05:06:48;100376.75;;;14.43;100.00
60244;BME280;46106;51.468;5.814;2022-09-09T05:09:14;100380.00;;;14.38;100.00
60244;BME280;46106;51.468;5.814;2022-09-09T05:11:39;100383.06;;;14.35;100.00
60244;BME280;46106;51.468;5.814;2022-09-09T05:14:05;100388.88;;;14.32;100.00
60244;BME280;46106;51.468;5.814;2022-09-09T05:16:32;100379.91;;;14.30;100.00
60244;BME280;46106;51.468;5.814;2022-09-09T05:18:58;100379.56;;;14.33;100.00
60244;BME280;46106;51.468;5.814;2022-09-09T05:21:24;100383.06;;;14.35;100.00
60244;BME280;46106;51.468;5.814;2022-09-09T05:23:56;100376.13;;;14.31;100.00
60244;BME280;46106;51.468;5.814;2022-09-09T05:26:27;100378.56;;;14.34;100.00
60244;BME280;46106;51.468;5.814;2022-09-09T05:28:55;100378.41;;;14.36;100.00
60244;BME280;46106;51.468;5.814;2022-09-09T05:31:21;100381.88;;;14.38;100.00
60244;BME280;46106;51.468;5.814;2022-09-09T05:33:54;100373.44;;;14.39;100.00
60244;BME280;46106;51.468;5.814;2022-09-09T05:36:22;100380.00;;;14.38;100.00
60244;BME280;46106;51.468;5.814;2022-09-09T05:38:52;100376.91;;;14.41;100.00
60244;BME280;46106;51.468;5.814;2022-09-09T05:41:19;100378.25;;;14.37;100.00
60244;BME280;46106;51.468;5.814;2022-09-09T05:43:47;100378.94;;;14.39;100.00
60244;BME280;46106;51.468;5.814;2022-09-09T05:46:19;100382.91;;;14.37;100.00
60244;BME280;46106;51.468;5.814;2022-09-09T05:48:47;100382.41;;;14.41;100.00
60244;BME280;46106;51.468;5.814;2022-09-09T05:51:16;100380.75;;;14.48;100.00
60244;BME280;46106;51.468;5.814;2022-09-09T05:53:44;100377.53;;;14.53;100.00
60244;BME280;46106;51.468;5.814;2022-09-09T05:56:13;100383.59;;;14.57;100.00
60244;BME280;46106;51.468;5.814;2022-09-09T05:58:45;100387.00;;;14.68;100.00
60244;BME280;46106;51.468;5.814;2022-09-09T06:01:21;100397.16;;;14.68;100.00
60244;BME280;46106;51.468;5.814;2022-09-09T06:03:53;100401.22;;;14.82;100.00
60244;BME280;46106;51.468;5.814;2022-09-09T06:06:21;100399.88;;;14.86;100.00
60244;BME280;46106;51.468;5.814;2022-09-09T06:08:54;100396.69;;;14.99;100.00
60244;BME280;46106;51.468;5.814;2022-09-09T06:11:25;100402.50;;;15.14;100.00
60244;BME280;46106;51.468;5.814;2022-09-09T06:13:55;100398.72;;;15.23;100.00
60244;BME280;46106;51.468;5.814;2022-09-09T06:16:23;100405.56;;;15.11;100.00
60244;BME280;46106;51.468;5.814;2022-09-09T06:18:51;100407.94;;;15.05;100.00
60244;BME280;46106;51.468;5.814;2022-09-09T06:21:22;100401.84;;;15.28;100.00
60244;BME280;46106;51.468;5.814;2022-09-09T06:23:49;100396.38;;;15.36;100.00
60244;BME280;46106;51.468;5.814;2022-09-09T06:26:20;100407.72;;;15.51;100.00
60244;BME280;46106;51.468;5.814;2022-09-09T06:28:47;100406.00;;;15.58;100.00
60244;BME280;46106;51.468;5.814;2022-09-09T06:31:17;100394.31;;;15.65;100.00
60244;BME280;46106;51.468;5.814;2022-09-09T06:33:50;100395.75;;;15.77;100.00
60244;BME280;46106;51.468;5.814;2022-09-09T06:36:19;100394.44;;;15.89;100.00
60244;BME280;46106;51.468;5.814;2022-09-09T06:38:45;100402.75;;;15.97;100.00
60244;BME280;46106;51.468;5.814;2022-09-09T06:41:17;100408.00;;;16.25;100.00
60244;BME280;46106;51.468;5.814;2022-09-09T06:43:44;100393.13;;;16.26;100.00
60244;BME280;46106;51.468;5.814;2022-09-09T06:46:10;100402.78;;;16.22;100.00
60244;BME280;46106;51.468;5.814;2022-09-09T06:48:38;100390.91;;;16.22;100.00
60244;BME280;46106;51.468;5.814;2022-09-09T06:51:11;100392.44;;;16.32;100.00
60244;BME280;46106;51.468;5.814;2022-09-09T06:53:41;100394.34;;;16.24;100.00
60244;BME280;46106;51.468;5.814;2022-09-09T06:58:41;100392.63;;;16.39;100.00
60244;BME280;46106;51.468;5.814;2022-09-09T07:01:15;100397.81;;;16.34;100.00
60244;BME280;46106;51.468;5.814;2022-09-09T07:03:44;100389.19;;;16.53;100.00
60244;BME280;46106;51.468;5.814;2022-09-09T07:06:22;100404.53;;;16.40;100.00
60244;BME280;46106;51.468;5.814;2022-09-09T07:08:50;100396.78;;;16.43;100.00
60244;BME280;46106;51.468;5.814;2022-09-09T07:11:17;100401.81;;;16.72;100.00
60244;BME280;46106;51.468;5.814;2022-09-09T07:13:47;100393.72;;;16.87;100.00
60244;BME280;46106;51.468;5.814;2022-09-09T07:16:15;100394.22;;;16.91;100.00
60244;BME280;46106;51.468;5.814;2022-09-09T07:18:41;100394.03;;;17.01;100.00
60244;BME280;46106;51.468;5.814;2022-09-09T07:21:10;100394.91;;;17.01;100.00
60244;BME280;46106;51.468;5.814;2022-09-09T07:23:40;100399.41;;;16.94;100.00
60244;BME280;46106;51.468;5.814;2022-09-09T07:26:16;100391.97;;;16.95;100.00
60244;BME280;46106;51.468;5.814;2022-09-09T07:28:47;100398.00;;;16.82;100.00
60244;BME280;46106;51.468;5.814;2022-09-09T07:31:19;100396.66;;;16.94;100.00
60244;BME280;46106;51.468;5.814;2022-09-09T07:33:46;100406.97;;;17.33;100.00
60244;BME280;46106;51.468;5.814;2022-09-09T07:36:17;100400.34;;;17.34;100.00
60244;BME280;46106;51.468;5.814;2022-09-09T07:38:48;100403.69;;;17.13;100.00
60244;BME280;46106;51.468;5.814;2022-09-09T07:41:20;100403.84;;;17.12;100.00
60244;BME280;46106;51.468;5.814;2022-09-09T07:43:49;100402.31;;;17.17;100.00
60244;BME280;46106;51.468;5.814;2022-09-09T07:46:17;100401.06;;;17.28;100.00
60244;BME280;46106;51.468;5.814;2022-09-09T07:48:48;100401.03;;;17.36;100.00
60244;BME280;46106;51.468;5.814;2022-09-09T07:51:20;100410.84;;;17.55;100.00
60244;BME280;46106;51.468;5.814;2022-09-09T07:53:58;100411.75;;;17.95;100.00
60244;BME280;46106;51.468;5.814;2022-09-09T07:56:28;100406.75;;;17.35;100.00
60244;BME280;46106;51.468;5.814;2022-09-09T07:58:55;100398.69;;;17.25;100.00
60244;BME280;46106;51.468;5.814;2022-09-09T08:01:26;100406.81;;;17.10;100.00
60244;BME280;46106;51.468;5.814;2022-09-09T08:03:56;100408.34;;;17.21;100.00
60244;BME280;46106;51.468;5.814;2022-09-09T08:06:25;100411.00;;;16.89;100.00
60244;BME280;46106;51.468;5.814;2022-09-09T08:08:52;100412.19;;;16.95;100.00
60244;BME280;46106;51.468;5.814;2022-09-09T08:11:20;100416.53;;;16.89;100.00
60244;BME280;46106;51.468;5.814;2022-09-09T08:13:49;100410.78;;;16.83;100.00
60244;BME280;46106;51.468;5.814;2022-09-09T08:16:20;100419.09;;;16.83;100.00
60244;BME280;46106;51.468;5.814;2022-09-09T08:18:50;100409.59;;;16.85;100.00
60244;BME280;46106;51.468;5.814;2022-09-09T08:21:19;100414.59;;;16.90;100.00
60244;BME280;46106;51.468;5.814;2022-09-09T08:23:46;100424.63;;;17.16;100.00
60244;BME280;46106;51.468;5.814;2022-09-09T08:26:23;100427.72;;;17.21;100.00
60244;BME280;46106;51.468;5.814;2022-09-09T08:28:50;100422.88;;;17.23;100.00
60244;BME280;46106;51.468;5.814;2022-09-09T08:31:22;100432.22;;;17.22;100.00
60244;BME280;46106;51.468;5.814;2022-09-09T08:33:48;100422.38;;;17.03;100.00
60244;BME280;46106;51.468;5.814;2022-09-09T08:36:17;100420.66;;;17.02;100.00
60244;BME280;46106;51.468;5.814;2022-09-09T08:38:52;100428.75;;;17.20;100.00
60244;BME280;46106;51.468;5.814;2022-09-09T08:52:31;100433.63;;;16.93;100.00
60244;BME280;46106;51.468;5.814;2022-09-09T08:55:25;100435.53;;;17.09;100.00
60244;BME280;46106;51.468;5.814;2022-09-09T08:57:58;100430.47;;;17.29;100.00
60244;BME280;46106;51.468;5.814;2022-09-09T09:00:35;100435.50;;;17.25;100.00
60244;BME280;46106;51.468;5.814;2022-09-09T09:03:30;100433.72;;;17.41;100.00
60244;BME280;46106;51.468;5.814;2022-09-09T09:12:01;100441.69;;;17.44;100.00
60244;BME280;46106;51.468;5.814;2022-09-09T09:14:29;100439.97;;;17.35;100.00
60244;BME280;46106;51.468;5.814;2022-09-09T09:19:24;100442.00;;;17.49;100.00
60244;BME280;46106;51.468;5.814;2022-09-09T09:22:06;100445.28;;;17.53;100.00
60244;BME280;46106;51.468;5.814;2022-09-09T09:25:09;100455.31;;;17.62;100.00
60244;BME280;46106;51.468;5.814;2022-09-09T09:27:51;100454.13;;;17.48;100.00
60244;BME280;46106;51.468;5.814;2022-09-09T09:30:29;100449.16;;;17.35;100.00
60244;BME280;46106;51.468;5.814;2022-09-09T09:35:33;100447.41;;;17.34;100.00
60244;BME280;46106;51.468;5.814;2022-09-09T09:37:58;100442.41;;;17.30;100.00
60244;BME280;46106;51.468;5.814;2022-09-09T09:40:26;100441.31;;;17.47;100.00
60244;BME280;46106;51.468;5.814;2022-09-09T09:42:58;100448.78;;;17.47;100.00
60244;BME280;46106;51.468;5.814;2022-09-09T09:47:59;100450.81;;;17.53;100.00
60244;BME280;46106;51.468;5.814;2022-09-09T09:50:24;100443.94;;;17.40;100.00
60244;BME280;46106;51.468;5.814;2022-09-09T09:53:03;100450.16;;;17.42;100.00
60244;BME280;46106;51.468;5.814;2022-09-09T09:55:34;100436.16;;;17.36;100.00
60244;BME280;46106;51.468;5.814;2022-09-09T09:58:15;100447.38;;;17.51;100.00
60244;BME280;46106;51.468;5.814;2022-09-09T10:00:51;100442.19;;;17.39;100.00
60244;BME280;46106;51.468;5.814;2022-09-09T10:03:22;100448.25;;;17.43;100.00
60244;BME280;46106;51.468;5.814;2022-09-09T10:05:49;100434.25;;;17.36;100.00
60244;BME280;46106;51.468;5.814;2022-09-09T10:08:19;100455.88;;;17.33;100.00
60244;BME280;46106;51.468;5.814;2022-09-09T10:13:39;100451.53;;;17.55;100.00
60244;BME280;46106;51.468;5.814;2022-09-09T10:19:25;100454.50;;;18.01;100.00
60244;BME280;46106;51.468;5.814;2022-09-09T10:22:04;100454.84;;;17.98;100.00
60244;BME280;46106;51.468;5.814;2022-09-09T10:27:54;100447.41;;;17.98;100.00
60244;BME280;46106;51.468;5.814;2022-09-09T10:30:41;100457.00;;;17.88;100.00
60244;BME280;46106;51.468;5.814;2022-09-09T10:33:39;100443.34;;;17.70;100.00
60244;BME280;46106;51.468;5.814;2022-09-09T10:36:17;100457.88;;;17.72;100.00
60244;BME280;46106;51.468;5.814;2022-09-09T10:38:56;100454.25;;;17.71;100.00
60244;BME280;46106;51.468;5.814;2022-09-09T10:41:33;100453.75;;;17.68;100.00
60244;BME280;46106;51.468;5.814;2022-09-09T10:52:34;100437.91;;;16.63;100.00
60244;BME280;46106;51.468;5.814;2022-09-09T10:57:46;100455.19;;;16.57;100.00
60244;BME280;46106;51.468;5.814;2022-09-09T11:00:23;100434.75;;;16.41;100.00
60244;BME280;46106;51.468;5.814;2022-09-09T11:02:54;100447.06;;;16.55;100.00
60244;BME280;46106;51.468;5.814;2022-09-09T11:08:00;100446.22;;;16.63;100.00
60244;BME280;46106;51.468;5.814;2022-09-09T11:13:55;100443.75;;;16.35;100.00
60244;BME280;46106;51.468;5.814;2022-09-09T11:16:52;100454.34;;;16.05;100.00
60244;BME280;46106;51.468;5.814;2022-09-09T11:19:30;100453.63;;;15.95;100.00
60244;BME280;46106;51.468;5.814;2022-09-09T11:22:12;100455.69;;;15.58;100.00
60244;BME280;46106;51.468;5.814;2022-09-09T11:24:47;100446.34;;;15.51;100.00
60244;BME280;46106;51.468;5.814;2022-09-09T11:27:31;100442.06;;;15.65;100.00
60244;BME280;46106;51.468;5.814;2022-09-09T11:30:15;100435.69;;;15.65;100.00
60244;BME280;46106;51.468;5.814;2022-09-09T11:41:07;100446.59;;;15.66;100.00
60244;BME280;46106;51.468;5.814;2022-09-09T11:43:42;100449.88;;;15.70;100.00
60244;BME280;46106;51.468;5.814;2022-09-09T11:46:12;100456.03;;;15.63;100.00
60244;BME280;46106;51.468;5.814;2022-09-09T11:48:41;100460.00;;;15.61;100.00
60244;BME280;46106;51.468;5.814;2022-09-09T11:56:42;100456.72;;;15.92;100.00
60244;BME280;46106;51.468;5.814;2022-09-09T12:01:54;100454.28;;;16.40;100.00
60244;BME280;46106;51.468;5.814;2022-09-09T12:04:37;100449.81;;;16.47;100.00
60244;BME280;46106;51.468;5.814;2022-09-09T12:09:50;100446.38;;;16.61;100.00
60244;BME280;46106;51.468;5.814;2022-09-09T12:12:24;100445.38;;;16.87;100.00
60244;BME280;46106;51.468;5.814;2022-09-09T12:17:49;100451.44;;;16.99;100.00
60244;BME280;46106;51.468;5.814;2022-09-09T12:31:15;100438.63;;;16.81;100.00
60244;BME280;46106;51.468;5.814;2022-09-09T12:33:46;100448.13;;;16.95;100.00
60244;BME280;46106;51.468;5.814;2022-09-09T12:36:17;100442.94;;;16.92;100.00
60244;BME280;46106;51.468;5.814;2022-09-09T12:38:45;100439.50;;;17.06;100.00
60244;BME280;46106;51.468;5.814;2022-09-09T12:41:26;100431.50;;;17.20;100.00
60244;BME280;46106;51.468;5.814;2022-09-09T12:44:04;100439.28;;;17.33;100.00
60244;BME280;46106;51.468;5.814;2022-09-09T12:46:44;100432.88;;;17.32;100.00
60244;BME280;46106;51.468;5.814;2022-09-09T12:49:37;100418.31;;;17.55;100.00
60244;BME280;46106;51.468;5.814;2022-09-09T12:52:08;100423.22;;;17.84;100.00
60244;BME280;46106;51.468;5.814;2022-09-09T12:54:44;100429.66;;;17.76;100.00
60244;BME280;46106;51.468;5.814;2022-09-09T12:57:13;100422.50;;;17.82;100.00
60244;BME280;46106;51.468;5.814;2022-09-09T12:59:45;100424.09;;;17.76;100.00
60244;BME280;46106;51.468;5.814;2022-09-09T13:02:22;100425.94;;;18.00;100.00
60244;BME280;46106;51.468;5.814;2022-09-09T13:04:50;100426.84;;;17.85;100.00
60244;BME280;46106;51.468;5.814;2022-09-09T13:07:19;100416.56;;;18.02;100.00
60244;BME280;46106;51.468;5.814;2022-09-09T13:09:47;100427.06;;;18.14;100.00
60244;BME280;46106;51.468;5.814;2022-09-09T13:12:17;100416.63;;;17.85;100.00
60244;BME280;46106;51.468;5.814;2022-09-09T13:14:49;100409.19;;;17.94;100.00
60244;BME280;46106;51.468;5.814;2022-09-09T13:17:22;100406.19;;;17.95;100.00
60244;BME280;46106;51.468;5.814;2022-09-09T13:19:54;100401.38;;;17.97;100.00
60244;BME280;46106;51.468;5.814;2022-09-09T13:22:30;100401.16;;;18.07;100.00
60244;BME280;46106;51.468;5.814;2022-09-09T13:25:00;100404.75;;;18.08;100.00
60244;BME280;46106;51.468;5.814;2022-09-09T13:27:36;100400.31;;;17.98;100.00
60244;BME280;46106;51.468;5.814;2022-09-09T13:30:39;100394.94;;;17.97;100.00
60244;BME280;46106;51.468;5.814;2022-09-09T13:38:18;100393.72;;;18.54;100.00
60244;BME280;46106;51.468;5.814;2022-09-09T13:41:07;100387.81;;;18.57;100.00
60244;BME280;46106;51.468;5.814;2022-09-09T13:43:38;100387.13;;;18.55;100.00
60244;BME280;46106;51.468;5.814;2022-09-09T13:51:46;100388.22;;;18.69;100.00
60244;BME280;46106;51.468;5.814;2022-09-09T13:54:14;100393.84;;;18.61;100.00
60244;BME280;46106;51.468;5.814;2022-09-09T13:56:41;100389.41;;;18.51;100.00
60244;BME280;46106;51.468;5.814;2022-09-09T13:59:17;100390.16;;;18.45;100.00
60244;BME280;46106;51.468;5.814;2022-09-09T14:01:45;100386.94;;;18.33;100.00
60244;BME280;46106;51.468;5.814;2022-09-09T14:04:11;100388.84;;;18.33;100.00
60244;BME280;46106;51.468;5.814;2022-09-09T14:06:43;100381.16;;;18.43;100.00
60244;BME280;46106;51.468;5.814;2022-09-09T14:09:14;100373.50;;;18.68;100.00
60244;BME280;46106;51.468;5.814;2022-09-09T14:11:44;100383.84;;;18.74;100.00
60244;BME280;46106;51.468;5.814;2022-09-09T14:14:13;100377.06;;;18.77;100.00
60244;BME280;46106;51.468;5.814;2022-09-09T14:16:38;100379.13;;;18.83;100.00
60244;BME280;46106;51.468;5.814;2022-09-09T14:19:08;100378.28;;;18.98;100.00
60244;BME280;46106;51.468;5.814;2022-09-09T14:21:34;100378.13;;;19.14;100.00
60244;BME280;46106;51.468;5.814;2022-09-09T14:24:04;100379.34;;;18.97;100.00
60244;BME280;46106;51.468;5.814;2022-09-09T14:26:34;100382.22;;;18.80;100.00
60244;BME280;46106;51.468;5.814;2022-09-09T14:28:59;100372.75;;;18.98;100.00
60244;BME280;46106;51.468;5.814;2022-09-09T14:31:26;100376.03;;;19.16;100.00
60244;BME280;46106;51.468;5.814;2022-09-09T14:33:52;100377.56;;;19.34;100.00
60244;BME280;46106;51.468;5.814;2022-09-09T14:36:19;100372.22;;;19.47;100.00
60244;BME280;46106;51.468;5.814;2022-09-09T14:38:49;100379.00;;;19.44;100.00
60244;BME280;46106;51.468;5.814;2022-09-09T14:41:17;100379.09;;;19.36;100.00
60244;BME280;46106;51.468;5.814;2022-09-09T14:43:45;100369.13;;;19.12;100.00
60244;BME280;46106;51.468;5.814;2022-09-09T14:46:13;100357.81;;;18.99;100.00
60244;BME280;46106;51.468;5.814;2022-09-09T14:48:39;100374.44;;;18.99;100.00
60244;BME280;46106;51.468;5.814;2022-09-09T14:51:16;100375.22;;;18.92;100.00
60244;BME280;46106;51.468;5.814;2022-09-09T14:53:52;100373.13;;;19.09;100.00
60244;BME280;46106;51.468;5.814;2022-09-09T14:56:22;100374.44;;;18.99;100.00
60244;BME280;46106;51.468;5.814;2022-09-09T14:58:49;100369.91;;;18.83;100.00
60244;BME280;46106;51.468;5.814;2022-09-09T15:01:18;100375.22;;;18.92;100.00
60244;BME280;46106;51.468;5.814;2022-09-09T15:03:51;100361.72;;;18.89;100.00
60244;BME280;46106;51.468;5.814;2022-09-09T15:06:25;100369.59;;;19.01;100.00
60244;BME280;46106;51.468;5.814;2022-09-09T15:08:57;100372.38;;;19.01;100.00
60244;BME280;46106;51.468;5.814;2022-09-09T15:11:30;100372.00;;;19.04;100.00
60244;BME280;46106;51.468;5.814;2022-09-09T15:14:04;100378.78;;;19.01;100.00
60244;BME280;46106;51.468;5.814;2022-09-09T15:16:30;100376.94;;;18.94;100.00